createdAt,value
2018-07-20T00:00:25.303Z,67.29
2018-07-20T00:01:25.260Z,67.39
2018-07-20T00:02:25.239Z,67.29
2018-07-20T00:03:25.169Z,68.03
2018-07-20T00:04:25.126Z,68.64
2018-07-20T00:05:25.074Z,68.93
2018-07-20T00:06:25.035Z,68.64
2018-07-20T00:07:25.006Z,69.12
2018-07-20T00:08:24.940Z,68.26
2018-07-20T00:09:24.891Z,67.39
2018-07-20T00:10:24.851Z,67.49
2018-07-20T00:11:24.801Z,68.44
2018-07-20T00:12:24.783Z,68.64
2018-07-20T00:13:24.711Z,70.37
2018-07-20T00:14:24.670Z,69.31
2018-07-20T00:15:24.631Z,69.70
2018-07-20T00:16:24.574Z,69.41
2018-07-20T00:17:24.553Z,69.12
2018-07-20T00:18:24.483Z,69.38
2018-07-20T00:19:24.437Z,69.85
2018-07-20T00:20:24.391Z,70.72
2018-07-20T00:21:24.344Z,70.82
2018-07-20T00:22:24.322Z,71.69
2018-07-20T00:23:24.257Z,71.59
2018-07-20T00:24:24.209Z,71.49
2018-07-20T00:25:24.162Z,71.97
2018-07-20T00:26:24.118Z,70.34
2018-07-20T00:27:24.097Z,73.03
2018-07-20T00:28:24.027Z,73.32
2018-07-20T00:29:23.983Z,72.36
2018-07-20T00:30:23.996Z,73.51
2018-07-20T00:31:23.887Z,73.99
2018-07-20T00:32:23.864Z,71.69
2018-07-20T00:33:23.798Z,70.78
2018-07-20T00:34:23.755Z,73.19
2018-07-20T00:35:23.707Z,73.77
2018-07-20T00:36:23.658Z,74.82
2018-07-20T00:37:23.638Z,74.54
2018-07-20T00:38:23.565Z,75.02
2018-07-20T00:39:23.518Z,75.31
2018-07-20T00:40:23.473Z,76.07
2018-07-20T00:41:23.433Z,76.26
2018-07-20T00:42:23.408Z,76.07
2018-07-20T00:43:23.337Z,75.21
2018-07-20T00:44:23.293Z,77.09
2018-07-20T00:45:23.248Z,76.36
2018-07-20T00:46:23.199Z,75.49
2018-07-20T00:47:23.180Z,73.19
2018-07-20T00:48:23.106Z,73.96
2018-07-20T00:49:23.059Z,74.92
2018-07-20T00:50:23.017Z,74.21
2018-07-20T00:51:22.966Z,74.54
2018-07-20T00:52:22.947Z,75.31
2018-07-20T00:53:22.901Z,74.25
2018-07-20T00:54:22.834Z,74.34
2018-07-20T00:55:22.787Z,74.25
2018-07-20T00:56:22.739Z,75.75
2018-07-20T00:57:22.697Z,75.31
2018-07-20T00:58:22.673Z,75.21
2018-07-20T00:59:22.602Z,72.48
2018-07-20T01:00:22.557Z,71.84
2018-07-20T01:01:22.511Z,73.09
2018-07-20T01:02:22.465Z,74.63
2018-07-20T01:03:22.442Z,74.05
2018-07-20T01:04:22.370Z,73.67
2018-07-20T01:05:22.360Z,74.25
2018-07-20T01:06:22.282Z,75.31
2018-07-20T01:07:22.234Z,75.07
2018-07-20T01:08:22.209Z,74.40
2018-07-20T01:09:22.143Z,74.30
2018-07-20T01:10:22.094Z,73.63
2018-07-20T01:11:22.052Z,73.35
2018-07-20T01:12:22.007Z,73.63
2018-07-20T01:13:21.981Z,73.44
2018-07-20T01:14:21.912Z,72.67
2018-07-20T01:15:21.869Z,72.58
2018-07-20T01:16:21.818Z,73.25
2018-07-20T01:17:21.773Z,73.44
2018-07-20T01:18:21.753Z,73.44
2018-07-20T01:19:21.682Z,73.44
2018-07-20T01:20:21.634Z,73.44
2018-07-20T01:21:21.594Z,74.11
2018-07-20T01:22:21.542Z,74.40
2018-07-20T01:23:21.517Z,76.23
2018-07-20T01:24:21.452Z,75.94
2018-07-20T01:25:21.404Z,74.88
2018-07-20T01:26:21.358Z,76.52
2018-07-20T01:27:21.313Z,78.25
2018-07-20T01:28:21.287Z,77.63
2018-07-20T01:29:21.215Z,78.88
2018-07-20T01:30:21.173Z,79.07
2018-07-20T01:31:21.128Z,79.36
2018-07-20T01:32:21.079Z,78.98
2018-07-20T01:33:21.055Z,78.30
2018-07-20T01:34:20.992Z,77.92
2018-07-20T01:35:20.939Z,78.02
2018-07-20T01:36:20.896Z,78.02
2018-07-20T01:37:20.850Z,78.21
2018-07-20T01:38:20.827Z,80.51
2018-07-20T01:39:20.757Z,82.15
2018-07-20T01:40:20.712Z,81.96
2018-07-20T01:41:20.661Z,82.49
2018-07-20T01:42:20.621Z,82.10
2018-07-20T01:43:20.595Z,83.84
2018-07-20T01:44:20.528Z,82.20
2018-07-20T01:45:20.479Z,81.34
2018-07-20T01:46:20.435Z,80.96
2018-07-20T01:47:20.383Z,80.66
2018-07-20T01:48:20.362Z,81.82
2018-07-20T01:49:20.294Z,81.92
2018-07-20T01:50:20.248Z,82.01
2018-07-20T01:51:20.203Z,81.72
2018-07-20T01:52:20.151Z,84.60
2018-07-20T01:53:20.131Z,85.33
2018-07-20T01:54:20.062Z,85.71
2018-07-20T01:55:20.015Z,87.15
2018-07-20T01:56:19.968Z,87.15
2018-07-20T01:57:19.922Z,88.40
2018-07-20T01:58:19.896Z,87.92
2018-07-20T01:59:19.826Z,86.48
2018-07-20T02:00:19.782Z,86.10
2018-07-20T02:01:19.737Z,86.68
2018-07-20T02:02:19.686Z,86.96
2018-07-20T02:03:19.665Z,87.15
2018-07-20T02:04:19.596Z,87.05
2018-07-20T02:05:19.547Z,87.82
2018-07-20T02:06:19.501Z,88.11
2018-07-20T02:07:19.450Z,87.05
2018-07-20T02:08:19.437Z,88.21
2018-07-20T02:09:19.362Z,88.49
2018-07-20T02:10:19.315Z,88.98
2018-07-20T02:11:19.268Z,88.98
2018-07-20T02:12:19.233Z,89.17
2018-07-20T02:13:19.200Z,88.98
2018-07-20T02:14:19.129Z,88.40
2018-07-20T02:15:19.085Z,89.46
2018-07-20T02:16:19.037Z,90.13
2018-07-20T02:17:18.990Z,90.22
2018-07-20T02:18:18.961Z,91.57
2018-07-20T02:19:18.893Z,91.86
2018-07-20T02:20:18.851Z,91.76
2018-07-20T02:21:18.798Z,92.48
2018-07-20T02:22:18.756Z,93.87
2018-07-20T02:23:18.745Z,95.21
2018-07-20T02:24:18.660Z,94.83
2018-07-20T02:25:18.619Z,93.63
2018-07-20T02:26:18.568Z,93.92
2018-07-20T02:27:18.525Z,91.81
2018-07-20T02:28:18.476Z,91.62
2018-07-20T02:29:18.449Z,92.00
2018-07-20T02:30:18.381Z,91.81
2018-07-20T02:31:18.332Z,91.62
2018-07-20T02:32:18.289Z,92.39
2018-07-20T02:33:18.241Z,92.19
2018-07-20T02:34:18.218Z,93.06
2018-07-20T02:35:18.159Z,93.44
2018-07-20T02:36:18.101Z,92.96
2018-07-20T02:37:18.055Z,92.48
2018-07-20T02:38:18.007Z,92.86
2018-07-20T02:39:17.982Z,92.86
2018-07-20T02:40:17.911Z,94.21
2018-07-20T02:41:17.868Z,95.84
2018-07-20T02:42:17.819Z,96.51
2018-07-20T02:43:17.780Z,96.75
2018-07-20T02:44:17.753Z,96.89
2018-07-20T02:45:17.681Z,97.28
2018-07-20T02:46:17.700Z,96.37
2018-07-20T02:47:17.595Z,98.10
2018-07-20T02:48:17.535Z,98.38
2018-07-20T02:49:17.511Z,97.81
2018-07-20T02:50:17.442Z,97.81
2018-07-20T02:51:17.393Z,97.42
2018-07-20T02:52:17.344Z,96.75
2018-07-20T02:53:17.303Z,96.85
2018-07-20T02:54:17.276Z,97.23
2018-07-20T02:55:17.204Z,96.37
2018-07-20T02:56:17.155Z,96.85
2018-07-20T02:57:17.110Z,96.75
2018-07-20T02:58:17.063Z,97.42
2018-07-20T02:59:17.036Z,97.33
2018-07-20T03:00:16.966Z,98.19
2018-07-20T03:01:16.923Z,98.10
2018-07-20T03:02:16.877Z,99.44
2018-07-20T03:03:16.825Z,99.53
2018-07-20T03:04:16.812Z,98.38
2018-07-20T03:05:16.740Z,99.99
2018-07-20T03:06:16.687Z,99.99
2018-07-20T03:07:16.638Z,99.99
2018-07-20T03:08:16.593Z,99.99
2018-07-20T03:09:16.571Z,99.99
2018-07-20T03:10:16.500Z,99.99
2018-07-20T03:11:16.454Z,99.99
2018-07-20T03:12:16.404Z,99.99
2018-07-20T03:13:16.357Z,99.99
2018-07-20T03:14:16.338Z,99.99
2018-07-20T03:15:16.261Z,99.99
2018-07-20T03:16:16.218Z,99.99
2018-07-20T03:17:16.166Z,99.99
2018-07-20T03:18:16.123Z,99.99
2018-07-20T03:19:16.094Z,99.99
2018-07-20T03:20:16.025Z,99.99
2018-07-20T03:21:15.980Z,99.99
2018-07-20T03:22:15.932Z,99.99
2018-07-20T03:23:15.885Z,99.99
2018-07-20T03:24:15.862Z,99.99
2018-07-20T03:25:15.788Z,99.99
2018-07-20T03:26:15.747Z,99.99
2018-07-20T03:27:15.695Z,99.99
2018-07-20T03:28:15.649Z,99.99
2018-07-20T03:29:15.630Z,99.99
2018-07-20T03:30:15.556Z,99.99
2018-07-20T03:31:15.509Z,99.99
2018-07-20T03:32:15.464Z,99.99
2018-07-20T03:33:15.411Z,99.99
2018-07-20T03:34:15.390Z,99.99
2018-07-20T03:35:15.320Z,99.99
2018-07-20T03:36:15.271Z,99.99
2018-07-20T03:37:15.224Z,99.99
2018-07-20T03:38:15.180Z,99.99
2018-07-20T03:39:15.154Z,99.99
2018-07-20T03:40:15.082Z,99.99
2018-07-20T03:41:15.036Z,99.99
2018-07-20T03:42:14.989Z,99.99
2018-07-20T03:43:14.941Z,99.99
2018-07-20T03:44:14.915Z,99.99
2018-07-20T03:45:14.846Z,99.99
2018-07-20T03:46:14.800Z,99.99
2018-07-20T03:47:14.750Z,99.99
2018-07-20T03:48:14.708Z,99.99
2018-07-20T03:49:14.685Z,99.99
2018-07-20T03:50:14.616Z,99.99
2018-07-20T03:51:14.572Z,99.99
2018-07-20T03:52:14.540Z,99.99
2018-07-20T03:53:14.473Z,99.99
2018-07-20T03:54:14.421Z,99.99
2018-07-20T03:55:14.400Z,99.99
2018-07-20T03:56:14.328Z,99.99
2018-07-20T03:57:14.277Z,99.99
2018-07-20T03:58:14.237Z,99.99
2018-07-20T03:59:14.183Z,99.99
2018-07-20T04:00:14.164Z,99.99
2018-07-20T04:01:14.093Z,99.99
2018-07-20T04:02:14.047Z,99.99
2018-07-20T04:03:13.995Z,99.99
2018-07-20T04:04:13.948Z,99.99
2018-07-20T04:05:13.924Z,99.99
2018-07-20T04:06:13.856Z,99.99
2018-07-20T04:07:13.809Z,99.99
2018-07-20T04:08:13.762Z,99.99
2018-07-20T04:09:13.714Z,99.99
2018-07-20T04:10:13.710Z,99.99
2018-07-20T04:11:13.621Z,99.99
2018-07-20T04:12:13.571Z,99.99
2018-07-20T04:13:13.527Z,99.99
2018-07-20T04:14:13.475Z,99.99
2018-07-20T04:15:13.456Z,99.99
2018-07-20T04:16:13.386Z,99.99
2018-07-20T04:17:13.343Z,99.99
2018-07-20T04:18:13.291Z,99.99
2018-07-20T04:19:13.247Z,99.99
2018-07-20T04:20:13.223Z,99.99
2018-07-20T04:21:13.154Z,99.99
2018-07-20T04:22:13.113Z,99.99
2018-07-20T04:23:13.056Z,99.99
2018-07-20T04:24:13.011Z,99.99
2018-07-20T04:25:12.982Z,99.99
2018-07-20T04:26:12.913Z,99.99
2018-07-20T04:27:12.866Z,99.99
2018-07-20T04:28:12.821Z,99.99
2018-07-20T04:29:12.773Z,99.99
2018-07-20T04:30:12.750Z,99.99
2018-07-20T04:31:12.680Z,99.99
2018-07-20T04:32:12.637Z,99.99
2018-07-20T04:33:12.591Z,99.99
2018-07-20T04:34:12.540Z,99.99
2018-07-20T04:35:12.512Z,99.99
2018-07-20T04:36:12.442Z,99.99
2018-07-20T04:37:12.396Z,99.99
2018-07-20T04:38:12.347Z,99.99
2018-07-20T04:39:12.305Z,99.99
2018-07-20T04:40:12.280Z,99.99
2018-07-20T04:41:12.223Z,99.99
2018-07-20T04:42:12.164Z,99.99
2018-07-20T04:43:12.116Z,99.99
2018-07-20T04:44:12.070Z,99.99
2018-07-20T04:45:12.046Z,99.99
2018-07-20T04:46:11.974Z,99.99
2018-07-20T04:47:11.931Z,99.99
2018-07-20T04:48:11.883Z,99.99
2018-07-20T04:49:11.837Z,99.99
2018-07-20T04:50:11.818Z,99.49
2018-07-20T04:51:11.740Z,99.99
2018-07-20T04:52:11.699Z,99.99
2018-07-20T04:53:11.651Z,99.99
2018-07-20T04:54:11.604Z,99.30
2018-07-20T04:55:11.580Z,99.99
2018-07-20T04:56:11.511Z,99.99
2018-07-20T04:57:11.460Z,99.99
2018-07-20T04:58:11.418Z,99.99
2018-07-20T04:59:11.367Z,99.99
2018-07-20T05:00:11.347Z,99.99
2018-07-20T05:01:11.282Z,99.99
2018-07-20T05:02:11.230Z,99.99
2018-07-20T05:03:11.181Z,99.99
2018-07-20T05:04:11.136Z,99.99
2018-07-20T05:05:11.117Z,99.99
2018-07-20T05:06:11.044Z,98.77
2018-07-20T05:07:10.998Z,98.96
2018-07-20T05:08:10.954Z,98.10
2018-07-20T05:09:10.908Z,97.04
2018-07-20T05:10:10.885Z,94.93
2018-07-20T05:11:10.812Z,94.45
2018-07-20T05:12:10.772Z,93.87
2018-07-20T05:13:10.722Z,93.01
2018-07-20T05:14:10.673Z,94.78
2018-07-20T05:15:10.646Z,91.90
2018-07-20T05:16:10.603Z,92.38
2018-07-20T05:17:10.541Z,92.38
2018-07-20T05:18:10.489Z,91.13
2018-07-20T05:19:10.445Z,94.30
2018-07-20T05:20:10.420Z,90.84
2018-07-20T05:21:10.348Z,92.96
2018-07-20T05:22:10.306Z,94.11
2018-07-20T05:23:10.263Z,95.07
2018-07-20T05:24:10.229Z,92.86
2018-07-20T05:25:10.193Z,96.32
2018-07-20T05:26:10.120Z,95.26
2018-07-20T05:27:10.077Z,95.21
2018-07-20T05:28:10.024Z,96.94
2018-07-20T05:29:09.983Z,93.68
2018-07-20T05:30:09.935Z,96.08
2018-07-20T05:31:09.955Z,95.12
2018-07-20T05:32:09.843Z,98.68
2018-07-20T05:33:09.801Z,98.19
2018-07-20T05:34:09.755Z,97.04
2018-07-20T05:35:09.709Z,88.48
2018-07-20T05:36:09.682Z,85.11
2018-07-20T05:37:09.621Z,85.88
2018-07-20T05:38:09.619Z,86.56
2018-07-20T05:39:09.520Z,87.33
2018-07-20T05:40:09.478Z,85.98
2018-07-20T05:41:09.454Z,84.16
2018-07-20T05:42:09.386Z,83.62
2018-07-20T05:43:09.337Z,84.29
2018-07-20T05:44:09.296Z,84.97
2018-07-20T05:45:09.269Z,85.44
2018-07-20T05:46:09.224Z,88.71
2018-07-20T05:47:09.154Z,86.60
2018-07-20T05:48:09.107Z,83.62
2018-07-20T05:49:09.065Z,85.54
2018-07-20T05:50:09.021Z,83.72
2018-07-20T05:51:09.001Z,83.81
2018-07-20T05:52:08.933Z,82.46
2018-07-20T05:53:08.878Z,79.81
2018-07-20T05:54:08.836Z,84.43
2018-07-20T05:55:08.790Z,86.55
2018-07-20T05:56:08.767Z,81.63
2018-07-20T05:57:08.702Z,85.87
2018-07-20T05:58:08.658Z,88.67
2018-07-20T05:59:08.605Z,86.35
2018-07-20T06:00:08.560Z,85.97
2018-07-20T06:01:08.541Z,85.58
2018-07-20T06:02:08.471Z,84.72
2018-07-20T06:03:08.425Z,87.90
2018-07-20T06:04:08.419Z,89.92
2018-07-20T06:05:08.335Z,92.71
2018-07-20T06:06:08.318Z,92.71
2018-07-20T06:07:08.246Z,90.20
2018-07-20T06:08:08.202Z,87.12
2018-07-20T06:09:08.153Z,86.83
2018-07-20T06:10:08.116Z,86.55
2018-07-20T06:11:08.093Z,82.70
2018-07-20T06:12:08.021Z,81.06
2018-07-20T06:13:07.972Z,80.00
2018-07-20T06:14:07.937Z,78.11
2018-07-20T06:15:07.882Z,78.40
2018-07-20T06:16:07.864Z,78.88
2018-07-20T06:17:07.792Z,82.16
2018-07-20T06:18:07.748Z,85.14
2018-07-20T06:19:07.708Z,84.28
2018-07-20T06:20:07.655Z,82.54
2018-07-20T06:21:07.633Z,82.35
2018-07-20T06:22:07.563Z,83.80
2018-07-20T06:23:07.522Z,82.74
2018-07-20T06:24:07.474Z,80.71
2018-07-20T06:25:07.433Z,80.56
2018-07-20T06:26:07.408Z,79.94
2018-07-20T06:27:07.348Z,79.02
2018-07-20T06:28:07.298Z,80.37
2018-07-20T06:29:07.252Z,77.58
2018-07-20T06:30:07.204Z,75.55
2018-07-20T06:31:07.186Z,76.51
2018-07-20T06:32:07.119Z,77.28
2018-07-20T06:33:07.076Z,78.34
2018-07-20T06:34:07.031Z,76.80
2018-07-20T06:35:07.014Z,75.26
2018-07-20T06:36:06.970Z,74.78
2018-07-20T06:37:06.895Z,74.49
2018-07-20T06:38:06.852Z,75.78
2018-07-20T06:39:06.804Z,73.72
2018-07-20T06:40:06.764Z,72.95
2018-07-20T06:41:06.738Z,71.83
2018-07-20T06:42:06.673Z,73.75
2018-07-20T06:43:06.627Z,72.02
2018-07-20T06:44:06.587Z,70.86
2018-07-20T06:45:06.538Z,72.02
2018-07-20T06:46:06.515Z,70.57
2018-07-20T06:47:06.445Z,73.85
2018-07-20T06:48:06.402Z,74.62
2018-07-20T06:49:06.358Z,74.72
2018-07-20T06:50:06.312Z,71.44
2018-07-20T06:51:06.299Z,70.00
2018-07-20T06:52:06.223Z,68.10
2018-07-20T06:53:06.181Z,71.09
2018-07-20T06:54:06.142Z,71.96
2018-07-20T06:55:06.095Z,72.44
2018-07-20T06:56:06.076Z,72.54
2018-07-20T06:57:06.027Z,75.53
2018-07-20T06:58:05.959Z,73.73
2018-07-20T06:59:05.911Z,71.61
2018-07-20T07:00:05.871Z,69.49
2018-07-20T07:01:05.826Z,71.55
2018-07-20T07:02:05.810Z,71.74
2018-07-20T07:03:05.735Z,69.42
2018-07-20T07:04:05.691Z,67.88
2018-07-20T07:05:05.648Z,65.85
2018-07-20T07:06:05.607Z,65.88
2018-07-20T07:07:05.585Z,66.14
2018-07-20T07:08:05.515Z,64.43
2018-07-20T07:09:05.473Z,67.04
2018-07-20T07:10:05.438Z,65.78
2018-07-20T07:11:05.386Z,66.85
2018-07-20T07:12:05.365Z,64.72
2018-07-20T07:13:05.295Z,65.11
2018-07-20T07:14:05.257Z,64.05
2018-07-20T07:15:05.215Z,65.98
2018-07-20T07:16:05.168Z,63.47
2018-07-20T07:17:05.148Z,63.50
2018-07-20T07:18:05.078Z,61.47
2018-07-20T07:19:05.035Z,61.76
2018-07-20T07:20:04.991Z,62.73
2018-07-20T07:21:04.949Z,60.41
2018-07-20T07:22:04.926Z,61.60
2018-07-20T07:23:04.859Z,62.76
2018-07-20T07:24:04.818Z,63.76
2018-07-20T07:25:04.773Z,65.20
2018-07-20T07:26:04.732Z,63.85
2018-07-20T07:27:04.710Z,63.18
2018-07-20T07:28:04.643Z,61.82
2018-07-20T07:29:04.619Z,62.21
2018-07-20T07:30:04.555Z,61.72
2018-07-20T07:31:04.513Z,62.01
2018-07-20T07:32:04.497Z,60.69
2018-07-20T07:33:04.428Z,60.59
2018-07-20T07:34:04.386Z,58.75
2018-07-20T07:35:04.342Z,58.75
2018-07-20T07:36:04.299Z,58.75
2018-07-20T07:37:04.281Z,59.91
2018-07-20T07:38:04.215Z,60.69
2018-07-20T07:39:04.169Z,58.95
2018-07-20T07:40:04.126Z,57.69
2018-07-20T07:41:04.084Z,60.78
2018-07-20T07:42:04.106Z,60.82
2018-07-20T07:43:04.002Z,60.24
2018-07-20T07:44:03.961Z,61.01
2018-07-20T07:45:03.917Z,57.62
2018-07-20T07:46:03.870Z,57.91
2018-07-20T07:47:03.854Z,60.33
2018-07-20T07:48:03.787Z,61.43
2018-07-20T07:49:03.744Z,58.81
2018-07-20T07:50:03.709Z,58.72
2018-07-20T07:51:03.658Z,58.84
2018-07-20T07:52:03.641Z,57.29
2018-07-20T07:53:03.572Z,58.36
2018-07-20T07:54:03.535Z,60.68
2018-07-20T07:55:03.492Z,60.58
2018-07-20T07:56:03.446Z,58.74
2018-07-20T07:57:03.428Z,57.22
2018-07-20T07:58:03.368Z,54.99
2018-07-20T07:59:03.326Z,56.13
2018-07-20T08:00:03.287Z,54.19
2018-07-20T08:01:03.236Z,54.48
2018-07-20T08:02:03.217Z,55.35
2018-07-20T08:03:03.170Z,57.45
2018-07-20T08:04:03.113Z,57.84
2018-07-20T08:05:03.070Z,60.17
2018-07-20T08:06:03.032Z,57.55
2018-07-20T08:07:03.013Z,56.41
2018-07-20T08:08:02.944Z,57.58
2018-07-20T08:09:02.953Z,58.26
2018-07-20T08:10:03.037Z,57.97
2018-07-20T08:11:02.823Z,57.39
2018-07-20T08:12:02.810Z,56.51
2018-07-20T08:13:02.742Z,54.90
2018-07-20T08:14:02.693Z,56.35
2018-07-20T08:15:02.649Z,54.21
2018-07-20T08:16:02.608Z,52.66
2018-07-20T08:17:02.594Z,52.86
2018-07-20T08:18:02.527Z,52.86
2018-07-20T08:19:02.485Z,55.47
2018-07-20T08:20:02.442Z,54.77
2018-07-20T08:21:02.411Z,54.99
2018-07-20T08:22:02.389Z,54.48
2018-07-20T08:23:02.318Z,55.74
2018-07-20T08:24:02.277Z,54.96
2018-07-20T08:25:02.243Z,54.64
2018-07-20T08:26:02.195Z,54.84
2018-07-20T08:27:02.177Z,57.39
2018-07-20T08:28:02.112Z,54.77
2018-07-20T08:29:02.070Z,55.16
2018-07-20T08:30:02.031Z,53.53
2018-07-20T08:31:01.986Z,54.41
2018-07-20T08:32:01.975Z,53.15
2018-07-20T08:33:01.926Z,53.85
2018-07-20T08:34:01.865Z,54.44
2018-07-20T08:35:01.820Z,54.44
2018-07-20T08:36:01.779Z,53.10
2018-07-20T08:37:01.742Z,52.01
2018-07-20T08:38:01.721Z,50.94
2018-07-20T08:39:01.664Z,51.33
2018-07-20T08:40:01.618Z,53.56
2018-07-20T08:41:01.575Z,54.24
2018-07-20T08:42:01.537Z,52.40
2018-07-20T08:43:01.517Z,52.98
2018-07-20T08:44:01.449Z,52.69
2018-07-20T08:45:01.413Z,52.62
2018-07-20T08:46:01.375Z,50.68
2018-07-20T08:47:01.328Z,51.16
2018-07-20T08:48:01.308Z,53.00
2018-07-20T08:49:01.245Z,53.10
2018-07-20T08:50:01.204Z,51.75
2018-07-20T08:51:01.158Z,53.10
2018-07-20T08:52:01.124Z,52.33
2018-07-20T08:53:01.110Z,52.11
2018-07-20T08:54:01.047Z,51.84
2018-07-20T08:55:01.002Z,51.53
2018-07-20T08:56:00.965Z,52.66
2018-07-20T08:57:00.916Z,53.24
2018-07-20T08:58:00.900Z,52.56
2018-07-20T08:59:00.896Z,52.28
2018-07-20T09:00:00.852Z,51.62
2018-07-20T09:01:00.758Z,51.81
2018-07-20T09:02:00.720Z,52.01
2018-07-20T09:03:00.704Z,52.23
2018-07-20T09:04:00.635Z,53.10
2018-07-20T09:05:00.594Z,51.16
2018-07-20T09:06:00.551Z,52.62
2018-07-20T09:07:00.509Z,49.63
2018-07-20T09:08:00.498Z,50.70
2018-07-20T09:09:00.434Z,51.87
2018-07-20T09:10:00.399Z,51.87
2018-07-20T09:11:00.351Z,51.77
2018-07-20T09:12:00.311Z,50.31
2018-07-20T09:13:00.290Z,48.25
2018-07-20T09:14:00.229Z,46.60
2018-07-20T09:15:00.188Z,47.86
2018-07-20T09:16:00.144Z,49.51
2018-07-20T09:17:00.114Z,47.57
2018-07-20T09:18:00.090Z,47.66
2018-07-20T09:19:00.023Z,47.66
2018-07-20T09:19:59.988Z,47.93
2018-07-20T09:20:59.959Z,50.46
2018-07-20T09:21:59.902Z,48.22
2018-07-20T09:22:59.884Z,47.35
2018-07-20T09:23:59.822Z,49.22
2018-07-20T09:24:59.785Z,51.26
2018-07-20T09:25:59.743Z,51.26
2018-07-20T09:26:59.698Z,52.72
2018-07-20T09:27:59.681Z,51.84
2018-07-20T09:28:59.620Z,51.65
2018-07-20T09:29:59.581Z,52.25
2018-07-20T09:30:59.543Z,49.32
2018-07-20T09:31:59.496Z,49.51
2018-07-20T09:32:59.488Z,49.22
2018-07-20T09:33:59.472Z,51.65
2018-07-20T09:34:59.377Z,52.03
2018-07-20T09:35:59.338Z,49.32
2018-07-20T09:36:59.298Z,49.32
2018-07-20T09:37:59.287Z,49.80
2018-07-20T09:38:59.220Z,47.96
2018-07-20T09:39:59.177Z,51.16
2018-07-20T09:40:59.147Z,47.76
2018-07-20T09:41:59.095Z,46.91
2018-07-20T09:42:59.078Z,48.47
2018-07-20T09:43:59.014Z,48.57
2018-07-20T09:44:58.981Z,47.88
2018-07-20T09:45:58.936Z,47.69
2018-07-20T09:46:58.893Z,48.95
2018-07-20T09:47:58.878Z,49.34
2018-07-20T09:48:58.837Z,48.27
2018-07-20T09:49:58.772Z,48.78
2018-07-20T09:50:58.738Z,49.56
2018-07-20T09:51:58.694Z,49.07
2018-07-20T09:52:58.677Z,47.34
2018-07-20T09:53:58.619Z,46.08
2018-07-20T09:54:58.572Z,46.67
2018-07-20T09:55:58.536Z,46.50
2018-07-20T09:56:58.498Z,45.91
2018-07-20T09:57:58.486Z,47.69
2018-07-20T09:58:58.421Z,44.55
2018-07-20T09:59:58.374Z,46.59
2018-07-20T10:00:58.334Z,44.65
2018-07-20T10:01:58.300Z,46.11
2018-07-20T10:02:58.261Z,47.54
2018-07-20T10:03:58.241Z,48.13
2018-07-20T10:04:58.232Z,46.28
2018-07-20T10:05:58.134Z,46.57
2018-07-20T10:06:58.098Z,47.83
2018-07-20T10:07:58.058Z,47.15
2018-07-20T10:08:58.043Z,47.74
2018-07-20T10:09:57.983Z,48.83
2018-07-20T10:10:57.937Z,46.37
2018-07-20T10:11:57.901Z,44.72
2018-07-20T10:12:57.859Z,44.82
2018-07-20T10:13:57.844Z,46.67
2018-07-20T10:14:57.780Z,45.89
2018-07-20T10:15:57.739Z,45.60
2018-07-20T10:16:57.701Z,45.89
2018-07-20T10:17:57.661Z,46.18
2018-07-20T10:18:57.680Z,45.79
2018-07-20T10:19:57.589Z,46.50
2018-07-20T10:20:57.540Z,47.17
2018-07-20T10:21:57.506Z,45.81
2018-07-20T10:22:57.466Z,45.32
2018-07-20T10:23:57.448Z,43.48
2018-07-20T10:24:57.391Z,44.62
2018-07-20T10:25:57.344Z,42.78
2018-07-20T10:26:57.312Z,44.33
2018-07-20T10:27:57.267Z,45.69
2018-07-20T10:28:57.252Z,44.24
2018-07-20T10:29:57.185Z,44.33
2018-07-20T10:30:57.150Z,44.62
2018-07-20T10:31:57.110Z,45.69
2018-07-20T10:32:57.067Z,43.36
2018-07-20T10:33:57.063Z,44.72
2018-07-20T10:34:56.987Z,44.53
2018-07-20T10:35:56.949Z,43.95
2018-07-20T10:36:56.910Z,44.33
2018-07-20T10:37:56.870Z,44.43
2018-07-20T10:38:56.853Z,46.67
2018-07-20T10:39:56.791Z,45.69
2018-07-20T10:40:56.752Z,45.21
2018-07-20T10:41:56.715Z,45.40
2018-07-20T10:42:56.673Z,44.92
2018-07-20T10:43:56.654Z,45.21
2018-07-20T10:44:56.593Z,47.17
2018-07-20T10:45:56.558Z,46.11
2018-07-20T10:46:56.540Z,44.45
2018-07-20T10:47:56.477Z,43.96
2018-07-20T10:48:56.460Z,43.11
2018-07-20T10:49:56.414Z,45.06
2018-07-20T10:50:56.362Z,45.54
2018-07-20T10:51:56.344Z,44.98
2018-07-20T10:52:56.283Z,44.10
2018-07-20T10:53:56.292Z,42.84
2018-07-20T10:54:56.207Z,42.35
2018-07-20T10:55:56.162Z,43.05
2018-07-20T10:56:56.120Z,43.05
2018-07-20T10:57:56.087Z,44.52
2018-07-20T10:58:56.072Z,41.42
2018-07-20T10:59:56.005Z,40.72
2018-07-20T11:00:55.968Z,40.42
2018-07-20T11:01:55.930Z,41.50
2018-07-20T11:02:55.888Z,43.84
2018-07-20T11:03:55.873Z,40.70
2018-07-20T11:04:55.808Z,41.06
2018-07-20T11:05:55.775Z,42.33
2018-07-20T11:06:55.731Z,42.24
2018-07-20T11:07:55.696Z,42.33
2018-07-20T11:08:55.679Z,44.49
2018-07-20T11:09:55.621Z,43.91
2018-07-20T11:10:55.570Z,40.29
2018-07-20T11:11:55.538Z,41.38
2018-07-20T11:12:55.498Z,44.38
2018-07-20T11:13:55.483Z,42.14
2018-07-20T11:14:55.421Z,40.31
2018-07-20T11:15:55.382Z,40.80
2018-07-20T11:16:55.343Z,41.20
2018-07-20T11:17:55.312Z,41.40
2018-07-20T11:18:55.285Z,42.08
2018-07-20T11:19:55.223Z,41.79
2018-07-20T11:20:55.183Z,41.69
2018-07-20T11:21:55.149Z,43.25
2018-07-20T11:22:55.111Z,42.69
2018-07-20T11:23:55.100Z,42.10
2018-07-20T11:24:55.030Z,40.55
2018-07-20T11:25:54.988Z,40.25
2018-07-20T11:26:54.952Z,42.20
2018-07-20T11:27:54.959Z,44.54
2018-07-20T11:28:54.878Z,41.61
2018-07-20T11:29:54.889Z,40.73
2018-07-20T11:30:54.798Z,41.32
2018-07-20T11:31:54.759Z,39.47
2018-07-20T11:32:54.718Z,40.25
2018-07-20T11:33:54.683Z,41.44
2018-07-20T11:34:54.669Z,43.66
2018-07-20T11:35:54.605Z,39.08
2018-07-20T11:36:54.563Z,41.52
2018-07-20T11:37:54.524Z,40.45
2018-07-20T11:38:54.484Z,41.71
2018-07-20T11:39:54.476Z,40.23
2018-07-20T11:40:54.413Z,39.72
2018-07-20T11:41:54.397Z,39.92
2018-07-20T11:42:54.334Z,42.25
2018-07-20T11:43:54.296Z,39.34
2018-07-20T11:44:54.281Z,41.38
2018-07-20T11:45:54.217Z,40.11
2018-07-20T11:46:54.190Z,41.46
2018-07-20T11:47:54.137Z,39.61
2018-07-20T11:48:54.100Z,39.88
2018-07-20T11:49:54.102Z,41.14
2018-07-20T11:50:54.019Z,42.02
2018-07-20T11:51:53.981Z,41.36
2018-07-20T11:52:53.940Z,41.55
2018-07-20T11:53:53.901Z,41.85
2018-07-20T11:54:53.884Z,41.94
2018-07-20T11:55:53.834Z,41.85
2018-07-20T11:56:53.784Z,40.78
2018-07-20T11:57:53.748Z,42.04
2018-07-20T11:58:53.712Z,41.55
2018-07-20T11:59:53.691Z,41.06
2018-07-20T12:00:53.623Z,42.04
2018-07-20T12:01:53.630Z,41.75
2018-07-20T12:02:53.545Z,42.33
2018-07-20T12:03:53.510Z,41.36
2018-07-20T12:04:53.489Z,43.21
2018-07-20T12:05:53.427Z,41.44
2018-07-20T12:06:53.433Z,42.31
2018-07-20T12:07:53.349Z,43.96
2018-07-20T12:08:53.308Z,42.70
2018-07-20T12:09:53.292Z,43.29
2018-07-20T12:10:53.227Z,42.90
2018-07-20T12:11:53.187Z,40.78
2018-07-20T12:12:53.146Z,42.04
2018-07-20T12:13:53.113Z,44.69
2018-07-20T12:14:53.097Z,45.18
2018-07-20T12:15:53.030Z,45.35
2018-07-20T12:16:52.991Z,42.14
2018-07-20T12:17:52.948Z,43.11
2018-07-20T12:18:52.917Z,42.72
2018-07-20T12:19:52.896Z,43.50
2018-07-20T12:20:52.831Z,44.28
2018-07-20T12:21:52.789Z,42.91
2018-07-20T12:22:52.753Z,41.85
2018-07-20T12:23:52.713Z,43.30
2018-07-20T12:24:52.694Z,42.72
2018-07-20T12:25:52.632Z,45.64
2018-07-20T12:26:52.590Z,44.96
2018-07-20T12:27:52.551Z,42.33
2018-07-20T12:28:52.513Z,44.38
2018-07-20T12:29:52.495Z,45.06
2018-07-20T12:30:52.433Z,41.85
2018-07-20T12:31:52.389Z,44.09
2018-07-20T12:32:52.352Z,45.15
2018-07-20T12:33:52.311Z,44.09
2018-07-20T12:34:52.294Z,43.89
2018-07-20T12:35:52.232Z,42.53
2018-07-20T12:36:52.191Z,42.06
2018-07-20T12:37:52.158Z,42.33
2018-07-20T12:38:52.111Z,41.67
2018-07-20T12:39:52.107Z,41.67
2018-07-20T12:40:52.032Z,41.77
2018-07-20T12:41:51.992Z,41.28
2018-07-20T12:42:51.955Z,44.79
2018-07-20T12:43:51.916Z,42.84
2018-07-20T12:44:51.873Z,40.68
2018-07-20T12:45:51.863Z,40.58
2018-07-20T12:46:51.795Z,43.30
2018-07-20T12:47:51.752Z,42.91
2018-07-20T12:48:51.716Z,41.65
2018-07-20T12:49:51.679Z,40.29
2018-07-20T12:50:51.657Z,45.47
2018-07-20T12:51:51.595Z,43.43